createdAt,value
2023-01-13T00:00:41.562Z,78
2023-01-13T00:01:48.618Z,78
2023-01-13T00:02:55.690Z,78
2023-01-13T00:04:03.004Z,78
2023-01-13T00:05:10.139Z,78
2023-01-13T00:06:17.153Z,78
2023-01-13T00:07:24.299Z,78
2023-01-13T00:08:31.417Z,77
2023-01-13T00:09:38.569Z,78
2023-01-13T00:10:45.708Z,77
2023-01-13T00:11:52.878Z,77
2023-01-13T00:12:59.953Z,77
2023-01-13T00:14:07.026Z,78
2023-01-13T00:15:14.152Z,77
2023-01-13T00:16:21.430Z,78
2023-01-13T00:17:28.608Z,77
2023-01-13T00:18:35.618Z,78
2023-01-13T00:19:42.701Z,78
2023-01-13T00:20:49.361Z,78
2023-01-13T00:22:06.748Z,77
2023-01-13T00:23:13.928Z,78
2023-01-13T00:24:20.934Z,79
2023-01-13T00:25:28.083Z,79
2023-01-13T00:26:35.167Z,78
2023-01-13T00:27:42.330Z,79
2023-01-13T00:28:49.476Z,78
2023-01-13T00:29:59.913Z,79
2023-01-13T00:31:06.867Z,79
2023-01-13T00:32:21.625Z,80
2023-01-13T00:33:28.764Z,81
2023-01-13T00:34:35.893Z,81
2023-01-13T00:35:43.004Z,82
2023-01-13T00:36:50.048Z,82
2023-01-13T00:37:57.197Z,82
2023-01-13T00:39:04.339Z,82
2023-01-13T00:40:11.566Z,82
2023-01-13T00:41:18.770Z,82
2023-01-13T00:42:25.896Z,82
2023-01-13T00:43:37.987Z,82
2023-01-13T00:44:45.104Z,82
2023-01-13T00:45:52.141Z,82
2023-01-13T00:46:59.313Z,82
2023-01-13T00:48:05.985Z,82
2023-01-13T00:49:13.167Z,82
2023-01-13T00:50:20.219Z,81
2023-01-13T00:51:27.305Z,81
2023-01-13T00:52:34.452Z,81
2023-01-13T00:53:41.475Z,81
2023-01-13T00:54:48.173Z,81
2023-01-13T00:55:55.289Z,81
2023-01-13T00:57:05.000Z,80
2023-01-13T00:58:12.061Z,81
2023-01-13T00:59:19.132Z,81
2023-01-13T01:00:26.263Z,80
2023-01-13T01:01:33.534Z,80
2023-01-13T01:02:40.608Z,80
2023-01-13T01:03:47.664Z,80
2023-01-13T01:04:54.770Z,80
2023-01-13T01:06:01.837Z,80
2023-01-13T01:07:11.998Z,80
2023-01-13T01:08:19.114Z,80
2023-01-13T01:09:26.257Z,80
2023-01-13T01:10:33.512Z,80
2023-01-13T01:11:40.453Z,80
2023-01-13T01:12:48.481Z,80
2023-01-13T01:13:55.732Z,80
2023-01-13T01:15:02.758Z,80
2023-01-13T01:16:10.138Z,79
2023-01-13T01:17:17.177Z,80
2023-01-13T01:18:24.372Z,80
2023-01-13T01:19:31.249Z,79
2023-01-13T01:20:38.421Z,80
2023-01-13T01:21:45.601Z,80
2023-01-13T01:22:52.677Z,79
2023-01-13T01:23:59.819Z,79
2023-01-13T01:25:07.024Z,79
2023-01-13T01:26:14.061Z,79
2023-01-13T01:27:21.198Z,79
2023-01-13T01:28:28.353Z,78
2023-01-13T01:29:35.422Z,78
2023-01-13T01:30:42.567Z,78
2023-01-13T01:31:49.676Z,78
2023-01-13T01:32:56.794Z,78
2023-01-13T01:34:03.921Z,78
2023-01-13T01:35:11.061Z,78
2023-01-13T01:36:17.885Z,78
2023-01-13T01:37:24.953Z,78
2023-01-13T01:38:31.916Z,78
2023-01-13T01:39:39.021Z,78
2023-01-13T01:40:45.676Z,78
2023-01-13T01:41:52.325Z,78
2023-01-13T01:43:04.518Z,78
2023-01-13T01:44:19.789Z,78
2023-01-13T01:45:37.049Z,78
2023-01-13T01:46:44.300Z,77
2023-01-13T01:47:51.345Z,77
2023-01-13T01:48:58.392Z,78
2023-01-13T01:50:05.532Z,78
2023-01-13T01:51:12.752Z,77
2023-01-13T01:52:19.774Z,77
2023-01-13T01:53:29.474Z,77
2023-01-13T01:54:36.557Z,77
2023-01-13T01:55:46.142Z,78
2023-01-13T01:56:53.363Z,77
2023-01-13T01:58:00.433Z,77
2023-01-13T01:59:12.879Z,77
2023-01-13T02:00:19.822Z,77
2023-01-13T02:01:27.036Z,77
2023-01-13T02:02:34.046Z,77
2023-01-13T02:03:41.078Z,77
2023-01-13T02:04:48.310Z,77
2023-01-13T02:05:55.357Z,77
2023-01-13T02:07:02.513Z,77
2023-01-13T02:08:09.602Z,77
2023-01-13T02:09:16.841Z,77
2023-01-13T02:10:23.854Z,76
2023-01-13T02:11:30.573Z,76
2023-01-13T02:12:42.754Z,76
2023-01-13T02:13:50.028Z,76
2023-01-13T02:14:57.037Z,76
2023-01-13T02:16:12.333Z,76
2023-01-13T02:17:19.570Z,76
2023-01-13T02:18:29.536Z,76
2023-01-13T02:19:41.743Z,76
2023-01-13T02:20:53.996Z,76
2023-01-13T02:22:11.353Z,76
2023-01-13T02:23:26.132Z,76
2023-01-13T02:24:48.476Z,76
2023-01-13T02:25:58.676Z,76
2023-01-13T02:27:16.045Z,76
2023-01-13T02:28:28.128Z,76
2023-01-13T02:29:40.318Z,76
2023-01-13T02:30:55.101Z,76
2023-01-13T02:32:07.379Z,76
2023-01-13T02:33:17.564Z,76
2023-01-13T02:34:32.148Z,76
2023-01-13T02:35:41.896Z,76
2023-01-13T02:36:54.621Z,75
2023-01-13T02:38:01.230Z,75
2023-01-13T02:39:08.366Z,76
2023-01-13T02:40:18.609Z,75
2023-01-13T02:41:30.736Z,76
2023-01-13T02:42:48.109Z,76
2023-01-13T02:44:03.350Z,76
2023-01-13T02:45:10.516Z,76
2023-01-13T02:46:20.184Z,76
2023-01-13T02:47:27.293Z,76
2023-01-13T02:48:34.312Z,76
2023-01-13T02:49:41.434Z,76
2023-01-13T02:50:48.672Z,76
2023-01-13T02:51:58.281Z,76
2023-01-13T02:53:10.505Z,76
2023-01-13T02:54:25.335Z,76
2023-01-13T02:55:32.530Z,76
2023-01-13T02:56:39.494Z,76
2023-01-13T02:57:46.678Z,76
2023-01-13T02:58:53.833Z,76
2023-01-13T03:00:00.938Z,76
2023-01-13T03:01:08.356Z,76
2023-01-13T03:02:15.479Z,76
2023-01-13T03:03:22.266Z,76
2023-01-13T03:04:29.335Z,76
2023-01-13T03:05:46.872Z,76
2023-01-13T03:06:53.936Z,76
2023-01-13T03:08:06.137Z,76
2023-01-13T03:09:18.414Z,76
2023-01-13T03:10:30.449Z,76
2023-01-13T03:11:45.302Z,77
2023-01-13T03:12:55.440Z,76
2023-01-13T03:14:10.697Z,76
2023-01-13T03:15:22.889Z,76
2023-01-13T03:16:37.737Z,76
2023-01-13T03:17:52.904Z,76
2023-01-13T03:19:08.195Z,76
2023-01-13T03:20:17.920Z,76
2023-01-13T03:21:25.036Z,76
2023-01-13T03:22:32.117Z,75
2023-01-13T03:23:44.309Z,75
2023-01-13T03:24:54.100Z,75
2023-01-13T03:26:01.137Z,75
2023-01-13T03:27:15.923Z,75
2023-01-13T03:28:33.152Z,75
2023-01-13T03:29:40.345Z,75
2023-01-13T03:30:50.449Z,75
2023-01-13T03:31:57.778Z,75
2023-01-13T03:33:04.653Z,75
2023-01-13T03:34:19.503Z,75
2023-01-13T03:35:26.696Z,75
2023-01-13T03:36:39.850Z,75
2023-01-13T03:37:46.826Z,75
2023-01-13T03:38:53.954Z,75
2023-01-13T03:40:01.113Z,75
2023-01-13T03:41:11.282Z,75
2023-01-13T03:42:20.960Z,75
2023-01-13T03:43:27.605Z,75
2023-01-13T03:44:45.902Z,75
2023-01-13T03:45:53.029Z,74
2023-01-13T03:47:00.121Z,75
2023-01-13T03:48:07.211Z,74
2023-01-13T03:49:14.341Z,75
2023-01-13T03:50:21.129Z,74
2023-01-13T03:51:31.141Z,74
2023-01-13T03:52:38.367Z,74
2023-01-13T03:53:47.989Z,74
2023-01-13T03:54:55.083Z,74
2023-01-13T03:56:02.207Z,74
2023-01-13T03:57:09.420Z,74
2023-01-13T03:58:16.597Z,74
2023-01-13T03:59:33.716Z,74
2023-01-13T04:00:40.870Z,73
2023-01-13T04:01:48.128Z,73
2023-01-13T04:02:55.120Z,73
2023-01-13T04:04:04.853Z,73
2023-01-13T04:05:12.002Z,73
2023-01-13T04:06:19.100Z,73
2023-01-13T04:07:28.860Z,73
2023-01-13T04:08:41.112Z,73
2023-01-13T04:09:48.145Z,72
2023-01-13T04:10:55.316Z,73
2023-01-13T04:12:07.551Z,74
2023-01-13T04:13:14.717Z,74
2023-01-13T04:14:21.727Z,74
2023-01-13T04:15:28.953Z,74
2023-01-13T04:16:44.204Z,73
2023-01-13T04:17:51.256Z,74
2023-01-13T04:18:58.375Z,74
2023-01-13T04:20:05.580Z,73
2023-01-13T04:21:12.745Z,74
2023-01-13T04:22:19.854Z,74
2023-01-13T04:23:27.020Z,74
2023-01-13T04:24:34.013Z,73
2023-01-13T04:25:41.236Z,73
2023-01-13T04:26:48.369Z,73
2023-01-13T04:27:55.469Z,73
2023-01-13T04:29:02.646Z,73
2023-01-13T04:30:09.782Z,73
2023-01-13T04:31:16.942Z,73
2023-01-13T04:32:23.975Z,73
2023-01-13T04:33:31.074Z,73
2023-01-13T04:34:38.257Z,73
2023-01-13T04:35:45.486Z,73
2023-01-13T04:36:52.392Z,73
2023-01-13T04:37:59.536Z,73
2023-01-13T04:39:09.230Z,73
2023-01-13T04:40:16.373Z,73
2023-01-13T04:41:23.602Z,73
2023-01-13T04:42:30.660Z,73
2023-01-13T04:43:37.638Z,73
2023-01-13T04:44:44.832Z,73
2023-01-13T04:45:51.995Z,73
2023-01-13T04:46:59.086Z,73
2023-01-13T04:48:06.272Z,73
2023-01-13T04:49:13.385Z,73
2023-01-13T04:50:20.450Z,73
2023-01-13T04:51:27.521Z,73
2023-01-13T04:52:34.603Z,73
2023-01-13T04:53:41.937Z,73
2023-01-13T04:54:48.946Z,73
2023-01-13T04:55:55.946Z,73
2023-01-13T04:57:03.124Z,73
2023-01-13T04:58:10.263Z,73
2023-01-13T04:59:17.336Z,73
2023-01-13T05:00:24.614Z,73
2023-01-13T05:01:31.895Z,73
2023-01-13T05:02:38.715Z,73
2023-01-13T05:03:45.880Z,73
2023-01-13T05:04:53.095Z,73
2023-01-13T05:06:00.166Z,73
2023-01-13T05:07:07.310Z,73
2023-01-13T05:08:14.342Z,73
2023-01-13T05:09:21.553Z,73
2023-01-13T05:10:28.643Z,72
2023-01-13T05:11:35.827Z,73
2023-01-13T05:12:47.942Z,73
2023-01-13T05:14:00.170Z,73
2023-01-13T05:15:12.280Z,73
2023-01-13T05:16:24.556Z,73
2023-01-13T05:17:36.733Z,72
2023-01-13T05:18:44.011Z,73
2023-01-13T05:19:51.107Z,73
2023-01-13T05:20:58.033Z,73
2023-01-13T05:22:05.122Z,73
2023-01-13T05:23:17.013Z,72
2023-01-13T05:24:29.239Z,73
2023-01-13T05:25:43.493Z,72
2023-01-13T05:26:48.493Z,72
2023-01-13T05:27:55.486Z,72
2023-01-13T05:29:02.687Z,72
2023-01-13T05:30:09.398Z,72
2023-01-13T05:31:16.487Z,72
2023-01-13T05:32:23.674Z,72
2023-01-13T05:33:30.706Z,72
2023-01-13T05:34:37.833Z,72
2023-01-13T05:35:44.841Z,72
2023-01-13T05:36:52.022Z,72
2023-01-13T05:37:59.169Z,72
2023-01-13T05:39:06.489Z,72
2023-01-13T05:40:13.419Z,72
2023-01-13T05:41:25.662Z,72
2023-01-13T05:42:37.800Z,72
2023-01-13T05:43:49.908Z,72
2023-01-13T05:44:57.162Z,72
2023-01-13T05:46:04.489Z,72
2023-01-13T05:47:11.300Z,72
2023-01-13T05:48:18.469Z,72
2023-01-13T05:49:25.607Z,72
2023-01-13T05:50:32.664Z,72
2023-01-13T05:51:39.879Z,72
2023-01-13T05:52:46.903Z,72
2023-01-13T05:53:53.998Z,72
2023-01-13T05:55:01.105Z,72
2023-01-13T05:56:08.296Z,72
2023-01-13T05:57:15.401Z,72
2023-01-13T05:58:22.164Z,72
2023-01-13T05:59:29.321Z,72
2023-01-13T06:00:36.267Z,72
2023-01-13T06:01:43.403Z,72
2023-01-13T06:02:50.659Z,72
2023-01-13T06:03:57.693Z,72
2023-01-13T06:05:04.940Z,72
2023-01-13T06:06:11.978Z,72
2023-01-13T06:07:19.057Z,72
2023-01-13T06:08:25.665Z,72
2023-01-13T06:09:32.881Z,72
2023-01-13T06:10:39.975Z,72
2023-01-13T06:11:47.135Z,72
2023-01-13T06:12:54.195Z,72
2023-01-13T06:14:01.316Z,72
2023-01-13T06:15:08.511Z,72
2023-01-13T06:16:15.672Z,72
2023-01-13T06:17:22.761Z,72
2023-01-13T06:18:29.831Z,72
2023-01-13T06:19:36.908Z,72
2023-01-13T06:20:44.095Z,72
2023-01-13T06:21:51.104Z,72
2023-01-13T06:22:58.611Z,72
2023-01-13T06:24:05.679Z,72
2023-01-13T06:25:12.596Z,72
2023-01-13T06:26:24.998Z,73
2023-01-13T06:27:31.854Z,72
2023-01-13T06:28:38.965Z,72
2023-01-13T06:29:46.161Z,72
2023-01-13T06:30:53.221Z,72
2023-01-13T06:32:00.460Z,73
2023-01-13T06:33:07.512Z,72
2023-01-13T06:34:15.621Z,72
2023-01-13T06:35:22.773Z,73
2023-01-13T06:36:29.902Z,73
2023-01-13T06:37:36.921Z,72
2023-01-13T06:38:43.639Z,72
2023-01-13T06:39:50.838Z,72
2023-01-13T06:40:57.876Z,73
2023-01-13T06:42:05.039Z,73
2023-01-13T06:43:17.686Z,72
2023-01-13T06:44:24.379Z,72
2023-01-13T06:45:31.394Z,73
2023-01-13T06:46:38.572Z,73
2023-01-13T06:47:45.827Z,73
2023-01-13T06:48:52.887Z,73
2023-01-13T06:49:59.911Z,73
2023-01-13T06:51:07.010Z,73
2023-01-13T06:52:14.205Z,73
2023-01-13T06:53:21.346Z,73
2023-01-13T06:54:28.472Z,73
2023-01-13T06:55:35.519Z,73
2023-01-13T06:56:42.525Z,73
2023-01-13T06:57:49.708Z,73
2023-01-13T06:59:00.073Z,73
2023-01-13T07:00:07.126Z,73
2023-01-13T07:01:14.548Z,73
2023-01-13T07:02:21.628Z,73
2023-01-13T07:03:28.441Z,72
2023-01-13T07:04:35.620Z,73
2023-01-13T07:05:42.700Z,73
2023-01-13T07:06:54.894Z,73
2023-01-13T07:08:02.138Z,73
2023-01-13T07:09:09.159Z,73
2023-01-13T07:10:16.376Z,73
2023-01-13T07:11:23.449Z,73
2023-01-13T07:12:30.487Z,73
2023-01-13T07:13:37.619Z,73
2023-01-13T07:14:49.880Z,73
2023-01-13T07:16:02.177Z,73
2023-01-13T07:17:09.133Z,73
2023-01-13T07:18:16.314Z,73
2023-01-13T07:19:23.494Z,73
2023-01-13T07:20:30.641Z,73
2023-01-13T07:21:37.764Z,73
2023-01-13T07:22:44.932Z,73
2023-01-13T07:23:52.032Z,73
2023-01-13T07:24:59.045Z,73
2023-01-13T07:26:06.230Z,73
2023-01-13T07:27:13.333Z,73
2023-01-13T07:28:20.540Z,73
2023-01-13T07:29:27.575Z,73
2023-01-13T07:30:34.668Z,73
2023-01-13T07:31:41.805Z,73
2023-01-13T07:32:48.910Z,72
2023-01-13T07:33:56.048Z,73
2023-01-13T07:35:03.248Z,73
2023-01-13T07:36:10.766Z,72
2023-01-13T07:37:17.516Z,73
2023-01-13T07:38:24.635Z,72
2023-01-13T07:39:31.711Z,72
2023-01-13T07:40:38.805Z,73
2023-01-13T07:41:45.914Z,73
2023-01-13T07:42:58.127Z,73
2023-01-13T07:44:10.320Z,73
2023-01-13T07:45:17.536Z,74
2023-01-13T07:46:24.650Z,73
2023-01-13T07:47:31.641Z,74
2023-01-13T07:48:38.783Z,74
2023-01-13T07:49:45.907Z,74
2023-01-13T07:50:53.033Z,74
2023-01-13T07:52:00.241Z,75
2023-01-13T07:53:07.340Z,75
2023-01-13T07:54:14.409Z,75
2023-01-13T07:55:21.128Z,75
2023-01-13T07:56:28.473Z,75
2023-01-13T07:57:35.895Z,75
2023-01-13T07:58:42.905Z,75
2023-01-13T07:59:50.006Z,75
2023-01-13T08:00:56.837Z,76
2023-01-13T08:02:03.970Z,76
2023-01-13T08:03:10.984Z,76
2023-01-13T08:04:18.155Z,77
2023-01-13T08:05:25.402Z,77
2023-01-13T08:06:32.769Z,76
2023-01-13T08:07:39.857Z,77
2023-01-13T08:08:46.985Z,77
2023-01-13T08:09:54.138Z,77
2023-01-13T08:11:01.399Z,77
2023-01-13T08:12:08.265Z,77
2023-01-13T08:13:20.317Z,77
2023-01-13T08:14:27.171Z,77
2023-01-13T08:15:34.269Z,77
2023-01-13T08:16:41.510Z,77
2023-01-13T08:17:48.544Z,76
2023-01-13T08:18:55.326Z,76
2023-01-13T08:20:02.415Z,76
2023-01-13T08:21:09.477Z,76
2023-01-13T08:22:16.564Z,76
2023-01-13T08:23:23.659Z,76
2023-01-13T08:24:30.423Z,76
2023-01-13T08:25:37.503Z,76
2023-01-13T08:26:44.558Z,76
2023-01-13T08:27:51.682Z,75
2023-01-13T08:28:58.798Z,75
2023-01-13T08:30:05.965Z,75
2023-01-13T08:31:13.181Z,75
2023-01-13T08:32:20.230Z,75
2023-01-13T08:33:27.391Z,75
2023-01-13T08:34:34.409Z,75
2023-01-13T08:35:41.606Z,75
2023-01-13T08:36:48.623Z,75
2023-01-13T08:37:55.926Z,75
2023-01-13T08:39:02.880Z,74
2023-01-13T08:40:10.005Z,74
2023-01-13T08:41:17.275Z,74
2023-01-13T08:42:24.286Z,74
2023-01-13T08:43:31.381Z,74
2023-01-13T08:44:38.620Z,74
2023-01-13T08:45:45.691Z,74
2023-01-13T08:47:00.918Z,74
2023-01-13T08:48:08.130Z,73
2023-01-13T08:49:16.158Z,73
2023-01-13T08:50:23.397Z,73
2023-01-13T08:51:30.459Z,73
2023-01-13T08:52:37.448Z,73
2023-01-13T08:53:44.692Z,73
2023-01-13T08:54:52.057Z,72
2023-01-13T08:55:58.928Z,72
2023-01-13T08:57:06.100Z,72
2023-01-13T08:58:16.407Z,72
2023-01-13T08:59:20.359Z,72
2023-01-13T09:00:27.450Z,71
2023-01-13T09:01:34.674Z,72
2023-01-13T09:02:41.726Z,72
2023-01-13T09:03:48.726Z,71
2023-01-13T09:04:55.840Z,71
2023-01-13T09:06:02.423Z,72
2023-01-13T09:07:09.641Z,71
2023-01-13T09:08:16.818Z,71
2023-01-13T09:09:23.901Z,71
2023-01-13T09:10:30.893Z,70
2023-01-13T09:11:38.003Z,70
2023-01-13T09:12:50.352Z,70
2023-01-13T09:14:03.506Z,70
2023-01-13T09:15:09.633Z,70
2023-01-13T09:16:16.812Z,70
2023-01-13T09:17:23.933Z,70
2023-01-13T09:18:31.063Z,70
2023-01-13T09:19:38.129Z,69
2023-01-13T09:20:45.397Z,70
2023-01-13T09:21:52.289Z,69
2023-01-13T09:22:59.438Z,69
2023-01-13T09:24:06.126Z,69
2023-01-13T09:25:13.340Z,69
2023-01-13T09:26:20.364Z,69
2023-01-13T09:27:27.537Z,69
2023-01-13T09:28:34.613Z,69
2023-01-13T09:29:41.727Z,69
2023-01-13T09:30:48.881Z,69
2023-01-13T09:31:55.969Z,69
2023-01-13T09:33:03.051Z,69
2023-01-13T09:34:15.389Z,69
2023-01-13T09:35:27.611Z,69
2023-01-13T09:36:34.732Z,69
2023-01-13T09:37:41.859Z,69
2023-01-13T09:38:48.873Z,69
2023-01-13T09:39:57.164Z,69
2023-01-13T09:41:04.164Z,69
2023-01-13T09:42:10.883Z,69
2023-01-13T09:43:31.213Z,68
2023-01-13T09:44:43.318Z,69
2023-01-13T09:45:50.486Z,68
2023-01-13T09:46:57.602Z,68
2023-01-13T09:48:04.805Z,68
2023-01-13T09:49:16.827Z,68
2023-01-13T09:50:26.582Z,68
2023-01-13T09:51:43.864Z,68
2023-01-13T09:52:50.939Z,67
2023-01-13T09:53:58.130Z,68
2023-01-13T09:55:10.294Z,67
2023-01-13T09:56:22.437Z,68
2023-01-13T09:57:29.122Z,67
2023-01-13T09:58:36.221Z,68
2023-01-13T09:59:43.405Z,68
2023-01-13T10:00:50.450Z,67
2023-01-13T10:02:05.258Z,67
2023-01-13T10:03:22.617Z,67
2023-01-13T10:04:29.633Z,67
2023-01-13T10:05:36.721Z,67
2023-01-13T10:06:46.432Z,67
2023-01-13T10:07:53.457Z,67
2023-01-13T10:09:03.131Z,67
2023-01-13T10:10:10.333Z,66
2023-01-13T10:11:19.482Z,66
2023-01-13T10:12:31.750Z,66
2023-01-13T10:13:44.120Z,66
2023-01-13T10:14:51.671Z,66
2023-01-13T10:16:00.183Z,66
2023-01-13T10:17:08.884Z,66
2023-01-13T10:18:20.994Z,66
2023-01-13T10:19:35.758Z,66
2023-01-13T10:20:47.896Z,65
2023-01-13T10:22:03.090Z,66
2023-01-13T10:23:12.905Z,66
2023-01-13T10:24:25.114Z,66
2023-01-13T10:25:42.366Z,65
2023-01-13T10:26:59.675Z,66
2023-01-13T10:28:06.751Z,65
2023-01-13T10:29:18.942Z,65
2023-01-13T10:30:28.645Z,66
2023-01-13T10:31:41.736Z,65
2023-01-13T10:32:48.925Z,66
2023-01-13T10:33:56.042Z,66
2023-01-13T10:35:03.210Z,65
2023-01-13T10:36:10.469Z,66
2023-01-13T10:37:20.071Z,66
2023-01-13T10:38:29.673Z,66
2023-01-13T10:39:44.772Z,65
2023-01-13T10:40:51.873Z,66
2023-01-13T10:42:04.687Z,66
2023-01-13T10:43:11.784Z,65
2023-01-13T10:44:18.969Z,66
2023-01-13T10:45:26.226Z,66
2023-01-13T10:46:33.109Z,66
2023-01-13T10:47:40.151Z,66
2023-01-13T10:48:47.372Z,66
2023-01-13T10:49:57.555Z,66
2023-01-13T10:51:09.790Z,66
2023-01-13T10:52:24.683Z,66
2023-01-13T10:53:31.751Z,67
2023-01-13T10:54:38.710Z,66
2023-01-13T10:55:45.802Z,67
2023-01-13T10:57:01.034Z,66
2023-01-13T10:58:15.849Z,67
2023-01-13T10:59:23.115Z,67
2023-01-13T11:00:32.627Z,67
2023-01-13T11:01:40.074Z,67
2023-01-13T11:02:46.918Z,67
2023-01-13T11:03:54.095Z,67
2023-01-13T11:05:01.251Z,67
2023-01-13T11:06:13.319Z,67
2023-01-13T11:07:28.191Z,67
2023-01-13T11:08:42.850Z,67
2023-01-13T11:09:49.999Z,67
2023-01-13T11:11:04.707Z,67
2023-01-13T11:12:11.364Z,67
2023-01-13T11:13:28.840Z,68
2023-01-13T11:14:35.776Z,68
2023-01-13T11:15:45.509Z,68
2023-01-13T11:17:02.779Z,68
2023-01-13T11:18:10.013Z,68
2023-01-13T11:19:17.235Z,68
2023-01-13T11:20:24.275Z,68
2023-01-13T11:21:33.860Z,68
2023-01-13T11:22:51.196Z,68
2023-01-13T11:23:58.268Z,68
2023-01-13T11:25:08.045Z,67
2023-01-13T11:26:15.160Z,68
2023-01-13T11:27:24.787Z,67
2023-01-13T11:28:42.032Z,67
2023-01-13T11:29:54.263Z,68
2023-01-13T11:31:11.567Z,67
2023-01-13T11:32:18.720Z,67
2023-01-13T11:33:25.761Z,67
2023-01-13T11:34:43.106Z,67
2023-01-13T11:35:50.236Z,67
2023-01-13T11:37:02.394Z,67
2023-01-13T11:38:17.679Z,67
2023-01-13T11:39:29.959Z,67
2023-01-13T11:40:42.120Z,67
2023-01-13T11:41:49.408Z,67
2023-01-13T11:42:59.515Z,67
2023-01-13T11:44:14.201Z,67
2023-01-13T11:45:26.457Z,67
2023-01-13T11:46:36.104Z,67
2023-01-13T11:47:43.200Z,67
2023-01-13T11:48:50.378Z,67
2023-01-13T11:49:57.547Z,67
2023-01-13T11:51:04.721Z,67
2023-01-13T11:52:16.974Z,67
2023-01-13T11:53:27.084Z,66
2023-01-13T11:54:44.304Z,67
2023-01-13T11:55:56.645Z,67
2023-01-13T11:57:08.823Z,67
2023-01-13T11:58:24.058Z,66
2023-01-13T11:59:39.369Z,66
2023-01-13T12:00:51.556Z,67
2023-01-13T12:02:08.853Z,66
2023-01-13T12:03:21.231Z,66
2023-01-13T12:04:33.812Z,66
2023-01-13T12:05:51.028Z,67
2023-01-13T12:07:03.271Z,67
2023-01-13T12:08:16.101Z,66
2023-01-13T12:09:28.271Z,67
2023-01-13T12:10:43.445Z,67
2023-01-13T12:11:58.907Z,67
2023-01-13T12:13:16.451Z,67
2023-01-13T12:14:28.687Z,67
2023-01-13T12:15:43.936Z,66
2023-01-13T12:17:01.468Z,67
2023-01-13T12:18:07.900Z,67
2023-01-13T12:19:25.256Z,67
2023-01-13T12:20:35.338Z,67
2023-01-13T12:21:52.601Z,67
2023-01-13T12:23:02.763Z,67
2023-01-13T12:24:09.833Z,67
2023-01-13T12:25:16.929Z,67
2023-01-13T12:26:24.096Z,67
2023-01-13T12:27:31.396Z,67
2023-01-13T12:28:40.976Z,67
2023-01-13T12:29:58.100Z,67
2023-01-13T12:31:05.284Z,67
2023-01-13T12:32:12.531Z,67
2023-01-13T12:33:22.061Z,67
2023-01-13T12:34:39.216Z,67
2023-01-13T12:35:56.561Z,67
2023-01-13T12:37:14.000Z,67
2023-01-13T12:38:26.348Z,67
2023-01-13T12:39:38.737Z,67
2023-01-13T12:40:53.445Z,67
2023-01-13T12:42:10.830Z,67
2023-01-13T12:43:28.123Z,66
2023-01-13T12:44:40.270Z,67
2023-01-13T12:45:57.619Z,67
2023-01-13T12:47:14.980Z,67
2023-01-13T12:48:32.256Z,67
2023-01-13T12:49:49.528Z,67
2023-01-13T12:50:56.788Z,67
2023-01-13T12:52:06.915Z,67
2023-01-13T12:53:17.199Z,68
2023-01-13T12:54:32.344Z,67
2023-01-13T12:55:44.515Z,67
2023-01-13T12:56:54.675Z,68
2023-01-13T12:58:01.812Z,68
2023-01-13T12:59:08.907Z,68
2023-01-13T13:00:21.159Z,68
2023-01-13T13:01:28.357Z,68
2023-01-13T13:02:38.461Z,68
2023-01-13T13:03:45.616Z,68
2023-01-13T13:05:03.335Z,68
2023-01-13T13:06:18.629Z,68
2023-01-13T13:07:25.772Z,68
2023-01-13T13:08:41.038Z,68
2023-01-13T13:09:53.257Z,68
2023-01-13T13:11:03.322Z,68
2023-01-13T13:12:15.613Z,68
2023-01-13T13:13:35.888Z,68
2023-01-13T13:14:43.115Z,67
2023-01-13T13:15:50.246Z,68
2023-01-13T13:16:57.363Z,68
2023-01-13T13:18:04.679Z,68
2023-01-13T13:19:22.247Z,68
2023-01-13T13:20:29.538Z,68
2023-01-13T13:21:41.605Z,68
2023-01-13T13:22:58.920Z,68
2023-01-13T13:24:06.342Z,68
2023-01-13T13:25:13.174Z,68
2023-01-13T13:26:22.821Z,68
2023-01-13T13:27:34.956Z,68
2023-01-13T13:28:42.067Z,68
2023-01-13T13:29:52.316Z,68
2023-01-13T13:31:05.534Z,68
2023-01-13T13:32:17.749Z,68
2023-01-13T13:33:29.898Z,68
2023-01-13T13:34:36.941Z,68
2023-01-13T13:35:49.137Z,69
2023-01-13T13:36:59.400Z,68
2023-01-13T13:38:09.084Z,68
2023-01-13T13:39:31.558Z,68
2023-01-13T13:40:43.637Z,67
2023-01-13T13:41:56.004Z,66
2023-01-13T13:43:08.199Z,67
2023-01-13T13:44:20.357Z,66
2023-01-13T13:45:40.743Z,66
2023-01-13T13:46:52.920Z,66
2023-01-13T13:47:59.947Z,66
2023-01-13T13:49:17.335Z,66
2023-01-13T13:50:24.434Z,66
2023-01-13T13:51:31.574Z,66
2023-01-13T13:52:38.658Z,66
2023-01-13T13:53:48.806Z,66
2023-01-13T13:54:56.054Z,66
2023-01-13T13:56:03.219Z,66
2023-01-13T13:57:10.175Z,65
2023-01-13T13:58:23.007Z,66
2023-01-13T13:59:30.142Z,66
2023-01-13T14:00:37.126Z,66
2023-01-13T14:01:44.500Z,66
2023-01-13T14:02:51.538Z,66
2023-01-13T14:04:01.157Z,66
2023-01-13T14:05:08.314Z,66
2023-01-13T14:06:18.499Z,66
2023-01-13T14:07:25.637Z,66
2023-01-13T14:08:32.644Z,66
2023-01-13T14:09:39.775Z,66
2023-01-13T14:10:49.548Z,65
2023-01-13T14:11:56.585Z,66
2023-01-13T14:13:03.786Z,66
2023-01-13T14:14:21.685Z,66
2023-01-13T14:15:28.713Z,66
2023-01-13T14:16:38.851Z,66
2023-01-13T14:17:45.906Z,66
2023-01-13T14:18:53.104Z,66
2023-01-13T14:20:00.182Z,66
2023-01-13T14:21:07.411Z,66
2023-01-13T14:22:19.620Z,66
2023-01-13T14:23:26.835Z,66
2023-01-13T14:24:33.778Z,66
2023-01-13T14:25:40.837Z,66
2023-01-13T14:26:50.617Z,66
2023-01-13T14:27:57.627Z,66
2023-01-13T14:29:15.030Z,66
2023-01-13T14:30:28.180Z,66
2023-01-13T14:31:35.245Z,66
2023-01-13T14:32:42.478Z,66
2023-01-13T14:33:49.565Z,66
2023-01-13T14:34:59.196Z,66
2023-01-13T14:36:06.280Z,66
2023-01-13T14:37:18.519Z,66
2023-01-13T14:38:35.712Z,66
2023-01-13T14:39:42.896Z,66
2023-01-13T14:40:50.232Z,66
2023-01-13T14:41:57.281Z,66
2023-01-13T14:43:04.230Z,67
2023-01-13T14:44:17.617Z,66
2023-01-13T14:45:30.723Z,66
2023-01-13T14:46:38.046Z,66
2023-01-13T14:47:45.102Z,67
2023-01-13T14:48:52.098Z,66
2023-01-13T14:50:04.388Z,66
2023-01-13T14:51:14.071Z,66
2023-01-13T14:52:24.209Z,66
2023-01-13T14:53:31.341Z,66
2023-01-13T14:54:41.447Z,67
2023-01-13T14:55:53.718Z,68
2023-01-13T14:57:00.800Z,68
2023-01-13T14:58:15.577Z,69
2023-01-13T14:59:25.737Z,69
2023-01-13T15:00:37.944Z,69
2023-01-13T15:01:45.097Z,69
2023-01-13T15:02:52.381Z,69
2023-01-13T15:04:02.479Z,69
2023-01-13T15:05:20.193Z,69
2023-01-13T15:06:29.905Z,68
2023-01-13T15:07:36.953Z,69
2023-01-13T15:08:44.079Z,68
2023-01-13T15:09:51.141Z,68
2023-01-13T15:10:58.315Z,68
2023-01-13T15:12:09.192Z,68
2023-01-13T15:13:16.266Z,68
2023-01-13T15:14:29.434Z,68
2023-01-13T15:15:36.569Z,68
2023-01-13T15:16:43.675Z,68
2023-01-13T15:17:50.718Z,68
2023-01-13T15:18:57.899Z,68
2023-01-13T15:20:04.977Z,68
2023-01-13T15:21:12.233Z,68
2023-01-13T15:22:19.484Z,68
2023-01-13T15:23:26.906Z,68
2023-01-13T15:24:33.964Z,68
2023-01-13T15:25:41.132Z,68
2023-01-13T15:26:48.279Z,68
2023-01-13T15:27:55.547Z,69
2023-01-13T15:29:02.561Z,69
2023-01-13T15:30:09.725Z,69
2023-01-13T15:31:19.947Z,69
2023-01-13T15:32:27.038Z,68
2023-01-13T15:33:34.156Z,69
2023-01-13T15:34:41.325Z,69
2023-01-13T15:35:48.496Z,69
2023-01-13T15:36:55.552Z,69
2023-01-13T15:38:02.680Z,70
2023-01-13T15:39:09.781Z,69
2023-01-13T15:40:16.933Z,69
2023-01-13T15:41:27.141Z,69
2023-01-13T15:42:39.281Z,69
2023-01-13T15:43:51.548Z,70
2023-01-13T15:45:01.744Z,69
2023-01-13T15:46:16.975Z,69
2023-01-13T15:47:29.203Z,70
2023-01-13T15:48:36.311Z,70
2023-01-13T15:49:43.509Z,70
2023-01-13T15:50:50.621Z,70
2023-01-13T15:51:57.764Z,70
2023-01-13T15:53:07.947Z,71
2023-01-13T15:54:15.069Z,70
2023-01-13T15:55:22.262Z,70
2023-01-13T15:56:29.505Z,71
2023-01-13T15:57:36.400Z,71
2023-01-13T15:58:43.520Z,71
2023-01-13T15:59:50.773Z,71
2023-01-13T16:00:57.969Z,71
2023-01-13T16:02:05.035Z,70
2023-01-13T16:03:17.291Z,71
2023-01-13T16:04:24.340Z,71
2023-01-13T16:05:31.528Z,71
2023-01-13T16:06:39.208Z,71
2023-01-13T16:07:46.246Z,71
2023-01-13T16:08:53.407Z,71
2023-01-13T16:10:00.511Z,71
2023-01-13T16:11:07.808Z,71
2023-01-13T16:12:14.948Z,72
2023-01-13T16:13:22.477Z,71
2023-01-13T16:14:29.620Z,71
2023-01-13T16:15:36.740Z,71
2023-01-13T16:16:48.936Z,72
2023-01-13T16:17:55.959Z,72
2023-01-13T16:19:03.189Z,72
2023-01-13T16:20:10.388Z,71
2023-01-13T16:21:18.056Z,71
2023-01-13T16:22:25.197Z,72
2023-01-13T16:23:32.242Z,72